sensor_id;sensor_type;location;lat;lon;timestamp;pressure;altitude;pressure_sealevel;temperature
38114;BMP180;23926;53.222;6.354;2023-04-28T00:01:18;101526.00;;;9.50
38114;BMP180;23926;53.222;6.354;2023-04-28T00:03:43;101520.00;;;9.40
38114;BMP180;23926;53.222;6.354;2023-04-28T00:06:09;101526.00;;;9.40
38114;BMP180;23926;53.222;6.354;2023-04-28T00:08:35;101534.00;;;9.50
38114;BMP180;23926;53.222;6.354;2023-04-28T00:11:01;101522.00;;;9.50
38114;BMP180;23926;53.222;6.354;2023-04-28T00:13:26;101519.00;;;9.40
38114;BMP180;23926;53.222;6.354;2023-04-28T00:15:52;101526.00;;;9.40
38114;BMP180;23926;53.222;6.354;2023-04-28T00:18:21;101524.00;;;9.50
38114;BMP180;23926;53.222;6.354;2023-04-28T00:20:46;101505.00;;;9.50
38114;BMP180;23926;53.222;6.354;2023-04-28T00:23:12;101515.00;;;9.60
38114;BMP180;23926;53.222;6.354;2023-04-28T00:25:38;101494.00;;;9.50
38114;BMP180;23926;53.222;6.354;2023-04-28T00:28:03;101499.00;;;9.60
38114;BMP180;23926;53.222;6.354;2023-04-28T00:30:29;101494.00;;;9.50
38114;BMP180;23926;53.222;6.354;2023-04-28T00:32:55;101494.00;;;9.50
38114;BMP180;23926;53.222;6.354;2023-04-28T00:35:20;101496.00;;;9.60
38114;BMP180;23926;53.222;6.354;2023-04-28T00:37:46;101485.00;;;9.50
38114;BMP180;23926;53.222;6.354;2023-04-28T00:40:11;101482.00;;;9.60
38114;BMP180;23926;53.222;6.354;2023-04-28T00:42:37;101477.00;;;9.60
38114;BMP180;23926;53.222;6.354;2023-04-28T00:45:02;101482.00;;;9.60
38114;BMP180;23926;53.222;6.354;2023-04-28T00:47:31;101467.00;;;9.60
38114;BMP180;23926;53.222;6.354;2023-04-28T00:49:58;101454.00;;;9.50
38114;BMP180;23926;53.222;6.354;2023-04-28T00:52:23;101460.00;;;9.50
38114;BMP180;23926;53.222;6.354;2023-04-28T00:54:49;101448.00;;;9.50
38114;BMP180;23926;53.222;6.354;2023-04-28T00:57:14;101434.00;;;9.50
38114;BMP180;23926;53.222;6.354;2023-04-28T00:59:40;101448.00;;;9.50
38114;BMP180;23926;53.222;6.354;2023-04-28T01:02:05;101438.00;;;9.50
38114;BMP180;23926;53.222;6.354;2023-04-28T01:04:32;101430.00;;;9.50
38114;BMP180;23926;53.222;6.354;2023-04-28T01:06:59;101440.00;;;9.40
38114;BMP180;23926;53.222;6.354;2023-04-28T01:09:25;101429.00;;;9.40
38114;BMP180;23926;53.222;6.354;2023-04-28T01:11:50;101441.00;;;9.40
38114;BMP180;23926;53.222;6.354;2023-04-28T01:14:15;101434.00;;;9.40
38114;BMP180;23926;53.222;6.354;2023-04-28T01:16:41;101439.00;;;9.40
38114;BMP180;23926;53.222;6.354;2023-04-28T01:19:08;101430.00;;;9.40
38114;BMP180;23926;53.222;6.354;2023-04-28T01:21:36;101434.00;;;9.30
38114;BMP180;23926;53.222;6.354;2023-04-28T01:24:01;101439.00;;;9.40
38114;BMP180;23926;53.222;6.354;2023-04-28T01:26:27;101427.00;;;9.40
38114;BMP180;23926;53.222;6.354;2023-04-28T01:28:52;101428.00;;;9.50
38114;BMP180;23926;53.222;6.354;2023-04-28T01:31:18;101435.00;;;9.50
38114;BMP180;23926;53.222;6.354;2023-04-28T01:33:44;101418.00;;;9.50
38114;BMP180;23926;53.222;6.354;2023-04-28T01:36:09;101404.00;;;9.40
38114;BMP180;23926;53.222;6.354;2023-04-28T01:38:35;101401.00;;;9.30
38114;BMP180;23926;53.222;6.354;2023-04-28T01:41:00;101395.00;;;9.30
38114;BMP180;23926;53.222;6.354;2023-04-28T01:43:27;101410.00;;;9.40
38114;BMP180;23926;53.222;6.354;2023-04-28T01:45:52;101378.00;;;9.40
38114;BMP180;23926;53.222;6.354;2023-04-28T01:48:17;101389.00;;;9.30
38114;BMP180;23926;53.222;6.354;2023-04-28T01:50:43;101381.00;;;9.30
38114;BMP180;23926;53.222;6.354;2023-04-28T01:53:08;101369.00;;;9.30
38114;BMP180;23926;53.222;6.354;2023-04-28T01:55:34;101364.00;;;9.40
38114;BMP180;23926;53.222;6.354;2023-04-28T01:57:59;101374.00;;;9.40
38114;BMP180;23926;53.222;6.354;2023-04-28T02:00:25;101365.00;;;9.40
38114;BMP180;23926;53.222;6.354;2023-04-28T02:02:51;101357.00;;;9.40
38114;BMP180;23926;53.222;6.354;2023-04-28T02:05:16;101351.00;;;9.40
38114;BMP180;23926;53.222;6.354;2023-04-28T02:07:42;101346.00;;;9.40
38114;BMP180;23926;53.222;6.354;2023-04-28T02:10:08;101344.00;;;9.40
38114;BMP180;23926;53.222;6.354;2023-04-28T02:12:34;101327.00;;;9.30
38114;BMP180;23926;53.222;6.354;2023-04-28T02:14:59;101333.00;;;9.30
38114;BMP180;23926;53.222;6.354;2023-04-28T02:17:25;101330.00;;;9.20
38114;BMP180;23926;53.222;6.354;2023-04-28T02:19:54;101340.00;;;9.30
38114;BMP180;23926;53.222;6.354;2023-04-28T02:22:23;101316.00;;;9.30
38114;BMP180;23926;53.222;6.354;2023-04-28T02:24:48;101337.00;;;9.40
38114;BMP180;23926;53.222;6.354;2023-04-28T02:27:14;101322.00;;;9.30
38114;BMP180;23926;53.222;6.354;2023-04-28T02:29:40;101319.00;;;9.30
38114;BMP180;23926;53.222;6.354;2023-04-28T02:32:06;101311.00;;;9.30
38114;BMP180;23926;53.222;6.354;2023-04-28T02:34:32;101318.00;;;9.30
38114;BMP180;23926;53.222;6.354;2023-04-28T02:36:57;101309.00;;;9.30
38114;BMP180;23926;53.222;6.354;2023-04-28T02:39:23;101309.00;;;9.20
38114;BMP180;23926;53.222;6.354;2023-04-28T02:41:54;101310.00;;;9.10
38114;BMP180;23926;53.222;6.354;2023-04-28T02:44:20;101305.00;;;9.10
38114;BMP180;23926;53.222;6.354;2023-04-28T02:46:45;101297.00;;;9.20
38114;BMP180;23926;53.222;6.354;2023-04-28T02:49:11;101293.00;;;9.20
38114;BMP180;23926;53.222;6.354;2023-04-28T02:51:37;101273.00;;;9.20
38114;BMP180;23926;53.222;6.354;2023-04-28T02:54:02;101288.00;;;9.30
38114;BMP180;23926;53.222;6.354;2023-04-28T02:56:28;101281.00;;;9.20
38114;BMP180;23926;53.222;6.354;2023-04-28T02:58:57;101267.00;;;9.30
38114;BMP180;23926;53.222;6.354;2023-04-28T03:01:23;101279.00;;;9.30
38114;BMP180;23926;53.222;6.354;2023-04-28T03:03:48;101272.00;;;9.30
38114;BMP180;23926;53.222;6.354;2023-04-28T03:06:13;101262.00;;;9.30
38114;BMP180;23926;53.222;6.354;2023-04-28T03:08:39;101250.00;;;9.40
38114;BMP180;23926;53.222;6.354;2023-04-28T03:11:04;101250.00;;;9.40
38114;BMP180;23926;53.222;6.354;2023-04-28T03:13:30;101258.00;;;9.40
38114;BMP180;23926;53.222;6.354;2023-04-28T03:15:55;101250.00;;;9.40
38114;BMP180;23926;53.222;6.354;2023-04-28T03:18:21;101248.00;;;9.50
38114;BMP180;23926;53.222;6.354;2023-04-28T03:20:47;101251.00;;;9.60
38114;BMP180;23926;53.222;6.354;2023-04-28T03:23:12;101248.00;;;9.60
38114;BMP180;23926;53.222;6.354;2023-04-28T03:25:38;101242.00;;;9.60
38114;BMP180;23926;53.222;6.354;2023-04-28T03:28:03;101238.00;;;9.60
38114;BMP180;23926;53.222;6.354;2023-04-28T03:30:29;101239.00;;;9.50
38114;BMP180;23926;53.222;6.354;2023-04-28T03:32:54;101218.00;;;9.40
38114;BMP180;23926;53.222;6.354;2023-04-28T03:35:20;101217.00;;;9.40
38114;BMP180;23926;53.222;6.354;2023-04-28T03:37:45;101221.00;;;9.40
38114;BMP180;23926;53.222;6.354;2023-04-28T03:40:11;101215.00;;;9.50
38114;BMP180;23926;53.222;6.354;2023-04-28T03:42:37;101227.00;;;9.50
38114;BMP180;23926;53.222;6.354;2023-04-28T03:45:02;101214.00;;;9.50
38114;BMP180;23926;53.222;6.354;2023-04-28T03:47:28;101214.00;;;9.60
38114;BMP180;23926;53.222;6.354;2023-04-28T03:49:53;101219.00;;;9.60
38114;BMP180;23926;53.222;6.354;2023-04-28T03:52:19;101210.00;;;9.50
38114;BMP180;23926;53.222;6.354;2023-04-28T03:54:44;101204.00;;;9.60
38114;BMP180;23926;53.222;6.354;2023-04-28T03:57:10;101204.00;;;9.60
38114;BMP180;23926;53.222;6.354;2023-04-28T03:59:36;101216.00;;;9.70
38114;BMP180;23926;53.222;6.354;2023-04-28T04:02:02;101210.00;;;9.80
38114;BMP180;23926;53.222;6.354;2023-04-28T04:04:27;101200.00;;;9.80
38114;BMP180;23926;53.222;6.354;2023-04-28T04:06:53;101206.00;;;9.80
38114;BMP180;23926;53.222;6.354;2023-04-28T04:09:18;101203.00;;;9.80
38114;BMP180;23926;53.222;6.354;2023-04-28T04:11:44;101205.00;;;9.80
38114;BMP180;23926;53.222;6.354;2023-04-28T04:14:09;101179.00;;;9.70
38114;BMP180;23926;53.222;6.354;2023-04-28T04:16:35;101185.00;;;9.90
38114;BMP180;23926;53.222;6.354;2023-04-28T04:19:01;101192.00;;;9.90
38114;BMP180;23926;53.222;6.354;2023-04-28T04:21:26;101187.00;;;9.90
38114;BMP180;23926;53.222;6.354;2023-04-28T04:23:52;101176.00;;;9.90
38114;BMP180;23926;53.222;6.354;2023-04-28T04:26:18;101187.00;;;10.00
38114;BMP180;23926;53.222;6.354;2023-04-28T04:28:43;101182.00;;;9.90
38114;BMP180;23926;53.222;6.354;2023-04-28T04:31:09;101185.00;;;10.00
38114;BMP180;23926;53.222;6.354;2023-04-28T04:33:34;101173.00;;;10.00
38114;BMP180;23926;53.222;6.354;2023-04-28T04:36:01;101166.00;;;10.00
38114;BMP180;23926;53.222;6.354;2023-04-28T04:38:26;101163.00;;;10.10
38114;BMP180;23926;53.222;6.354;2023-04-28T04:40:52;101173.00;;;10.10
38114;BMP180;23926;53.222;6.354;2023-04-28T04:43:17;101166.00;;;10.20
38114;BMP180;23926;53.222;6.354;2023-04-28T04:45:43;101176.00;;;10.20
38114;BMP180;23926;53.222;6.354;2023-04-28T04:48:08;101161.00;;;10.20
38114;BMP180;23926;53.222;6.354;2023-04-28T04:50:34;101156.00;;;10.10
38114;BMP180;23926;53.222;6.354;2023-04-28T04:52:59;101152.00;;;10.10
38114;BMP180;23926;53.222;6.354;2023-04-28T04:55:24;101148.00;;;10.10
38114;BMP180;23926;53.222;6.354;2023-04-28T04:57:50;101149.00;;;10.10
38114;BMP180;23926;53.222;6.354;2023-04-28T05:00:16;101146.00;;;10.10
38114;BMP180;23926;53.222;6.354;2023-04-28T05:02:41;101136.00;;;10.00
38114;BMP180;23926;53.222;6.354;2023-04-28T05:05:07;101134.00;;;10.00
38114;BMP180;23926;53.222;6.354;2023-04-28T05:07:33;101134.00;;;10.10
38114;BMP180;23926;53.222;6.354;2023-04-28T05:09:59;101131.00;;;10.20
38114;BMP180;23926;53.222;6.354;2023-04-28T05:12:24;101143.00;;;10.10
38114;BMP180;23926;53.222;6.354;2023-04-28T05:14:50;101136.00;;;10.20
38114;BMP180;23926;53.222;6.354;2023-04-28T05:17:16;101137.00;;;10.30
38114;BMP180;23926;53.222;6.354;2023-04-28T05:19:41;101141.00;;;10.20
38114;BMP180;23926;53.222;6.354;2023-04-28T05:22:07;101143.00;;;10.30
38114;BMP180;23926;53.222;6.354;2023-04-28T05:24:32;101145.00;;;10.30
38114;BMP180;23926;53.222;6.354;2023-04-28T05:26:58;101129.00;;;10.40
38114;BMP180;23926;53.222;6.354;2023-04-28T05:29:23;101136.00;;;10.50
38114;BMP180;23926;53.222;6.354;2023-04-28T05:31:49;101130.00;;;10.60
38114;BMP180;23926;53.222;6.354;2023-04-28T05:34:14;101126.00;;;10.60
38114;BMP180;23926;53.222;6.354;2023-04-28T05:36:40;101134.00;;;10.60
38114;BMP180;23926;53.222;6.354;2023-04-28T05:39:06;101135.00;;;10.70
38114;BMP180;23926;53.222;6.354;2023-04-28T05:41:31;101120.00;;;10.80
38114;BMP180;23926;53.222;6.354;2023-04-28T05:43:57;101106.00;;;10.80
38114;BMP180;23926;53.222;6.354;2023-04-28T05:46:22;101124.00;;;10.90
38114;BMP180;23926;53.222;6.354;2023-04-28T05:48:47;101117.00;;;10.80
38114;BMP180;23926;53.222;6.354;2023-04-28T05:51:13;101128.00;;;10.80
38114;BMP180;23926;53.222;6.354;2023-04-28T05:53:38;101128.00;;;10.70
38114;BMP180;23926;53.222;6.354;2023-04-28T05:56:04;101133.00;;;10.90
38114;BMP180;23926;53.222;6.354;2023-04-28T05:58:30;101129.00;;;11.00
38114;BMP180;23926;53.222;6.354;2023-04-28T06:00:56;101117.00;;;11.20
38114;BMP180;23926;53.222;6.354;2023-04-28T06:03:21;101114.00;;;11.20
38114;BMP180;23926;53.222;6.354;2023-04-28T06:05:46;101101.00;;;11.30
38114;BMP180;23926;53.222;6.354;2023-04-28T06:08:12;101087.00;;;11.40
38114;BMP180;23926;53.222;6.354;2023-04-28T06:10:37;101099.00;;;11.40
38114;BMP180;23926;53.222;6.354;2023-04-28T06:13:03;101103.00;;;11.40
38114;BMP180;23926;53.222;6.354;2023-04-28T06:15:30;101108.00;;;11.40
38114;BMP180;23926;53.222;6.354;2023-04-28T06:17:56;101107.00;;;11.60
38114;BMP180;23926;53.222;6.354;2023-04-28T06:20:23;101089.00;;;11.60
38114;BMP180;23926;53.222;6.354;2023-04-28T06:22:49;101095.00;;;11.80
38114;BMP180;23926;53.222;6.354;2023-04-28T06:25:15;101099.00;;;11.90
38114;BMP180;23926;53.222;6.354;2023-04-28T06:27:41;101088.00;;;12.00
38114;BMP180;23926;53.222;6.354;2023-04-28T06:30:06;101085.00;;;12.10
38114;BMP180;23926;53.222;6.354;2023-04-28T06:32:32;101084.00;;;12.30
38114;BMP180;23926;53.222;6.354;2023-04-28T06:34:57;101077.00;;;12.30
38114;BMP180;23926;53.222;6.354;2023-04-28T06:37:23;101087.00;;;12.30
38114;BMP180;23926;53.222;6.354;2023-04-28T06:39:48;101085.00;;;12.30
38114;BMP180;23926;53.222;6.354;2023-04-28T06:42:13;101088.00;;;12.20
38114;BMP180;23926;53.222;6.354;2023-04-28T06:44:42;101081.00;;;12.30
38114;BMP180;23926;53.222;6.354;2023-04-28T06:47:08;101092.00;;;12.30
38114;BMP180;23926;53.222;6.354;2023-04-28T06:49:33;101077.00;;;12.30
38114;BMP180;23926;53.222;6.354;2023-04-28T06:51:59;101072.00;;;12.30
38114;BMP180;23926;53.222;6.354;2023-04-28T06:54:25;101082.00;;;12.40
38114;BMP180;23926;53.222;6.354;2023-04-28T06:56:50;101071.00;;;12.50
38114;BMP180;23926;53.222;6.354;2023-04-28T06:59:16;101073.00;;;12.60
38114;BMP180;23926;53.222;6.354;2023-04-28T07:01:42;101075.00;;;12.70
38114;BMP180;23926;53.222;6.354;2023-04-28T07:04:07;101072.00;;;12.70
38114;BMP180;23926;53.222;6.354;2023-04-28T07:06:33;101067.00;;;12.80
38114;BMP180;23926;53.222;6.354;2023-04-28T07:08:58;101067.00;;;12.80
38114;BMP180;23926;53.222;6.354;2023-04-28T07:11:24;101064.00;;;12.90
38114;BMP180;23926;53.222;6.354;2023-04-28T07:13:49;101076.00;;;12.90
38114;BMP180;23926;53.222;6.354;2023-04-28T07:16:16;101079.00;;;12.90
38114;BMP180;23926;53.222;6.354;2023-04-28T07:18:42;101075.00;;;12.90
38114;BMP180;23926;53.222;6.354;2023-04-28T07:21:08;101072.00;;;12.90
38114;BMP180;23926;53.222;6.354;2023-04-28T07:23:33;101057.00;;;13.00
38114;BMP180;23926;53.222;6.354;2023-04-28T07:25:58;101062.00;;;13.00
38114;BMP180;23926;53.222;6.354;2023-04-28T07:28:24;101061.00;;;13.00
38114;BMP180;23926;53.222;6.354;2023-04-28T07:30:50;101051.00;;;13.10
38114;BMP180;23926;53.222;6.354;2023-04-28T07:33:16;101070.00;;;13.20
38114;BMP180;23926;53.222;6.354;2023-04-28T07:35:41;101063.00;;;13.20
38114;BMP180;23926;53.222;6.354;2023-04-28T07:38:07;101052.00;;;13.20
38114;BMP180;23926;53.222;6.354;2023-04-28T07:40:32;101051.00;;;13.30
38114;BMP180;23926;53.222;6.354;2023-04-28T07:42:58;101046.00;;;13.40
38114;BMP180;23926;53.222;6.354;2023-04-28T07:45:23;101059.00;;;13.40
38114;BMP180;23926;53.222;6.354;2023-04-28T07:47:48;101061.00;;;13.30
38114;BMP180;23926;53.222;6.354;2023-04-28T07:50:14;101060.00;;;13.40
38114;BMP180;23926;53.222;6.354;2023-04-28T07:52:40;101059.00;;;13.30
38114;BMP180;23926;53.222;6.354;2023-04-28T07:55:05;101060.00;;;13.10
38114;BMP180;23926;53.222;6.354;2023-04-28T07:57:31;101070.00;;;13.00
38114;BMP180;23926;53.222;6.354;2023-04-28T07:59:57;101065.00;;;13.10
38114;BMP180;23926;53.222;6.354;2023-04-28T08:02:22;101058.00;;;12.90
38114;BMP180;23926;53.222;6.354;2023-04-28T08:04:47;101053.00;;;12.80
38114;BMP180;23926;53.222;6.354;2023-04-28T08:07:13;101052.00;;;12.80
38114;BMP180;23926;53.222;6.354;2023-04-28T08:09:38;101057.00;;;12.90
38114;BMP180;23926;53.222;6.354;2023-04-28T08:12:06;101062.00;;;13.10
38114;BMP180;23926;53.222;6.354;2023-04-28T08:14:32;101056.00;;;13.10
38114;BMP180;23926;53.222;6.354;2023-04-28T08:16:57;101066.00;;;13.20
38114;BMP180;23926;53.222;6.354;2023-04-28T08:19:23;101066.00;;;13.30
38114;BMP180;23926;53.222;6.354;2023-04-28T08:21:48;101065.00;;;13.10
38114;BMP180;23926;53.222;6.354;2023-04-28T08:24:13;101061.00;;;13.10
38114;BMP180;23926;53.222;6.354;2023-04-28T08:26:39;101048.00;;;13.10
38114;BMP180;23926;53.222;6.354;2023-04-28T08:29:04;101069.00;;;13.20
38114;BMP180;23926;53.222;6.354;2023-04-28T08:31:30;101061.00;;;13.00
38114;BMP180;23926;53.222;6.354;2023-04-28T08:33:56;101067.00;;;13.10
38114;BMP180;23926;53.222;6.354;2023-04-28T08:36:21;101067.00;;;13.10
38114;BMP180;23926;53.222;6.354;2023-04-28T08:38:49;101059.00;;;13.30
38114;BMP180;23926;53.222;6.354;2023-04-28T08:41:15;101061.00;;;13.50
38114;BMP180;23926;53.222;6.354;2023-04-28T08:43:40;101053.00;;;13.70
38114;BMP180;23926;53.222;6.354;2023-04-28T08:46:08;101067.00;;;13.90
38114;BMP180;23926;53.222;6.354;2023-04-28T08:48:43;101062.00;;;14.00
38114;BMP180;23926;53.222;6.354;2023-04-28T08:51:25;101049.00;;;14.40
38114;BMP180;23926;53.222;6.354;2023-04-28T08:53:53;101050.00;;;14.60
38114;BMP180;23926;53.222;6.354;2023-04-28T08:56:20;101048.00;;;14.90
38114;BMP180;23926;53.222;6.354;2023-04-28T08:58:48;101038.00;;;15.20
38114;BMP180;23926;53.222;6.354;2023-04-28T09:01:14;101036.00;;;15.40
38114;BMP180;23926;53.222;6.354;2023-04-28T09:03:40;101044.00;;;15.50
38114;BMP180;23926;53.222;6.354;2023-04-28T09:06:05;101040.00;;;15.60
38114;BMP180;23926;53.222;6.354;2023-04-28T09:08:31;101028.00;;;15.70
38114;BMP180;23926;53.222;6.354;2023-04-28T09:11:09;101024.00;;;15.50
38114;BMP180;23926;53.222;6.354;2023-04-28T09:13:36;101021.00;;;15.40
38114;BMP180;23926;53.222;6.354;2023-04-28T09:16:02;101029.00;;;15.30
38114;BMP180;23926;53.222;6.354;2023-04-28T09:18:29;101016.00;;;15.40
38114;BMP180;23926;53.222;6.354;2023-04-28T09:21:05;101010.00;;;15.40
38114;BMP180;23926;53.222;6.354;2023-04-28T09:23:31;101010.00;;;15.60
38114;BMP180;23926;53.222;6.354;2023-04-28T09:26:05;101018.00;;;15.70
38114;BMP180;23926;53.222;6.354;2023-04-28T09:28:33;101008.00;;;15.80
38114;BMP180;23926;53.222;6.354;2023-04-28T09:30:59;101006.00;;;16.00
38114;BMP180;23926;53.222;6.354;2023-04-28T09:33:25;100985.00;;;16.20
38114;BMP180;23926;53.222;6.354;2023-04-28T09:35:52;100991.00;;;16.30
38114;BMP180;23926;53.222;6.354;2023-04-28T09:38:19;100987.00;;;16.50
38114;BMP180;23926;53.222;6.354;2023-04-28T09:41:01;100986.00;;;16.60
38114;BMP180;23926;53.222;6.354;2023-04-28T09:43:30;100984.00;;;16.50
38114;BMP180;23926;53.222;6.354;2023-04-28T09:46:01;100986.00;;;16.60
38114;BMP180;23926;53.222;6.354;2023-04-28T09:48:32;100978.00;;;16.80
38114;BMP180;23926;53.222;6.354;2023-04-28T09:51:02;100972.00;;;17.10
38114;BMP180;23926;53.222;6.354;2023-04-28T09:53:28;100975.00;;;17.30
38114;BMP180;23926;53.222;6.354;2023-04-28T09:55:56;100979.00;;;17.50
38114;BMP180;23926;53.222;6.354;2023-04-28T09:58:23;100976.00;;;17.60
38114;BMP180;23926;53.222;6.354;2023-04-28T10:00:57;100983.00;;;17.70
38114;BMP180;23926;53.222;6.354;2023-04-28T10:03:28;100974.00;;;17.70
38114;BMP180;23926;53.222;6.354;2023-04-28T10:05:55;100968.00;;;17.60
38114;BMP180;23926;53.222;6.354;2023-04-28T10:08:22;100966.00;;;17.50
38114;BMP180;23926;53.222;6.354;2023-04-28T10:10:49;100949.00;;;17.60
38114;BMP180;23926;53.222;6.354;2023-04-28T10:13:17;100952.00;;;17.60
38114;BMP180;23926;53.222;6.354;2023-04-28T10:15:44;100950.00;;;17.80
38114;BMP180;23926;53.222;6.354;2023-04-28T10:18:11;100945.00;;;17.90
38114;BMP180;23926;53.222;6.354;2023-04-28T10:20:36;100943.00;;;17.90
38114;BMP180;23926;53.222;6.354;2023-04-28T10:26:10;100950.00;;;17.90
38114;BMP180;23926;53.222;6.354;2023-04-28T10:28:36;100955.00;;;18.00
38114;BMP180;23926;53.222;6.354;2023-04-28T10:31:12;100958.00;;;18.00
38114;BMP180;23926;53.222;6.354;2023-04-28T10:33:39;100961.00;;;17.80
38114;BMP180;23926;53.222;6.354;2023-04-28T10:36:05;100950.00;;;17.60
38114;BMP180;23926;53.222;6.354;2023-04-28T10:38:32;100945.00;;;17.50
38114;BMP180;23926;53.222;6.354;2023-04-28T10:40:57;100939.00;;;17.30
38114;BMP180;23926;53.222;6.354;2023-04-28T10:43:38;100945.00;;;17.00
38114;BMP180;23926;53.222;6.354;2023-04-28T10:46:06;100938.00;;;16.90
38114;BMP180;23926;53.222;6.354;2023-04-28T10:56:16;100942.00;;;16.50
38114;BMP180;23926;53.222;6.354;2023-04-28T11:06:19;100934.00;;;16.70
38114;BMP180;23926;53.222;6.354;2023-04-28T11:08:49;100935.00;;;16.80
38114;BMP180;23926;53.222;6.354;2023-04-28T11:11:17;100933.00;;;17.00
38114;BMP180;23926;53.222;6.354;2023-04-28T11:13:42;100923.00;;;17.00
38114;BMP180;23926;53.222;6.354;2023-04-28T11:16:13;100927.00;;;17.10
38114;BMP180;23926;53.222;6.354;2023-04-28T11:18:54;100927.00;;;17.20
38114;BMP180;23926;53.222;6.354;2023-04-28T11:21:20;100919.00;;;17.10
38114;BMP180;23926;53.222;6.354;2023-04-28T11:23:46;100906.00;;;17.00
38114;BMP180;23926;53.222;6.354;2023-04-28T11:26:12;100916.00;;;16.80
38114;BMP180;23926;53.222;6.354;2023-04-28T11:28:52;100915.00;;;16.60
38114;BMP180;23926;53.222;6.354;2023-04-28T11:31:18;100912.00;;;16.50
38114;BMP180;23926;53.222;6.354;2023-04-28T11:34:05;100897.00;;;16.40
38114;BMP180;23926;53.222;6.354;2023-04-28T11:36:38;100900.00;;;16.50
38114;BMP180;23926;53.222;6.354;2023-04-28T11:39:05;100900.00;;;16.40
38114;BMP180;23926;53.222;6.354;2023-04-28T11:41:32;100905.00;;;16.40
38114;BMP180;23926;53.222;6.354;2023-04-28T11:43:59;100898.00;;;16.30
38114;BMP180;23926;53.222;6.354;2023-04-28T11:46:25;100901.00;;;16.30
38114;BMP180;23926;53.222;6.354;2023-04-28T11:49:04;100907.00;;;16.20
38114;BMP180;23926;53.222;6.354;2023-04-28T11:53:56;100909.00;;;16.10
38114;BMP180;23926;53.222;6.354;2023-04-28T11:56:22;100916.00;;;16.10
38114;BMP180;23926;53.222;6.354;2023-04-28T11:59:05;100907.00;;;16.10
38114;BMP180;23926;53.222;6.354;2023-04-28T12:01:32;100910.00;;;16.00
38114;BMP180;23926;53.222;6.354;2023-04-28T12:03:58;100906.00;;;16.00
38114;BMP180;23926;53.222;6.354;2023-04-28T12:06:24;100903.00;;;15.90
38114;BMP180;23926;53.222;6.354;2023-04-28T12:08:49;100888.00;;;16.00
38114;BMP180;23926;53.222;6.354;2023-04-28T12:11:16;100907.00;;;16.00
38114;BMP180;23926;53.222;6.354;2023-04-28T12:13:42;100893.00;;;16.00
38114;BMP180;23926;53.222;6.354;2023-04-28T12:16:08;100893.00;;;16.00
38114;BMP180;23926;53.222;6.354;2023-04-28T12:18:34;100894.00;;;16.10
38114;BMP180;23926;53.222;6.354;2023-04-28T12:21:04;100901.00;;;16.30
38114;BMP180;23926;53.222;6.354;2023-04-28T12:23:34;100891.00;;;16.40
38114;BMP180;23926;53.222;6.354;2023-04-28T12:26:01;100894.00;;;16.50
38114;BMP180;23926;53.222;6.354;2023-04-28T12:28:40;100891.00;;;16.60
38114;BMP180;23926;53.222;6.354;2023-04-28T12:31:08;100899.00;;;16.60
38114;BMP180;23926;53.222;6.354;2023-04-28T12:33:35;100888.00;;;16.60
38114;BMP180;23926;53.222;6.354;2023-04-28T12:36:05;100876.00;;;16.60
38114;BMP180;23926;53.222;6.354;2023-04-28T12:38:31;100880.00;;;16.70
38114;BMP180;23926;53.222;6.354;2023-04-28T12:40:57;100865.00;;;16.90
38114;BMP180;23926;53.222;6.354;2023-04-28T12:43:23;100860.00;;;17.10
38114;BMP180;23926;53.222;6.354;2023-04-28T12:45:52;100864.00;;;17.50
38114;BMP180;23926;53.222;6.354;2023-04-28T12:48:21;100852.00;;;17.80
38114;BMP180;23926;53.222;6.354;2023-04-28T12:50:49;100856.00;;;18.20
38114;BMP180;23926;53.222;6.354;2023-04-28T12:53:15;100856.00;;;18.40
38114;BMP180;23926;53.222;6.354;2023-04-28T12:55:41;100855.00;;;18.40
38114;BMP180;23926;53.222;6.354;2023-04-28T12:58:06;100859.00;;;18.50
38114;BMP180;23926;53.222;6.354;2023-04-28T13:00:32;100849.00;;;18.60
38114;BMP180;23926;53.222;6.354;2023-04-28T13:02:57;100847.00;;;18.60
38114;BMP180;23926;53.222;6.354;2023-04-28T13:05:23;100853.00;;;18.40
38114;BMP180;23926;53.222;6.354;2023-04-28T13:07:48;100851.00;;;18.20
38114;BMP180;23926;53.222;6.354;2023-04-28T13:10:15;100857.00;;;17.90
38114;BMP180;23926;53.222;6.354;2023-04-28T13:12:40;100851.00;;;17.60
38114;BMP180;23926;53.222;6.354;2023-04-28T13:15:06;100846.00;;;17.30
38114;BMP180;23926;53.222;6.354;2023-04-28T13:17:32;100837.00;;;17.10
38114;BMP180;23926;53.222;6.354;2023-04-28T13:19:58;100846.00;;;16.90
38114;BMP180;23926;53.222;6.354;2023-04-28T13:22:25;100848.00;;;16.90
38114;BMP180;23926;53.222;6.354;2023-04-28T13:24:51;100849.00;;;16.70
38114;BMP180;23926;53.222;6.354;2023-04-28T13:27:16;100851.00;;;16.70
38114;BMP180;23926;53.222;6.354;2023-04-28T13:29:41;100849.00;;;16.70
38114;BMP180;23926;53.222;6.354;2023-04-28T13:32:07;100843.00;;;16.60
38114;BMP180;23926;53.222;6.354;2023-04-28T13:34:33;100846.00;;;16.70
38114;BMP180;23926;53.222;6.354;2023-04-28T13:36:58;100845.00;;;16.70
38114;BMP180;23926;53.222;6.354;2023-04-28T13:39:24;100857.00;;;16.60
38114;BMP180;23926;53.222;6.354;2023-04-28T13:41:49;100854.00;;;16.50
38114;BMP180;23926;53.222;6.354;2023-04-28T13:44:15;100844.00;;;16.40
38114;BMP180;23926;53.222;6.354;2023-04-28T13:46:41;100835.00;;;16.20
38114;BMP180;23926;53.222;6.354;2023-04-28T13:49:08;100837.00;;;16.20
38114;BMP180;23926;53.222;6.354;2023-04-28T13:51:34;100847.00;;;16.20
38114;BMP180;23926;53.222;6.354;2023-04-28T13:53:59;100852.00;;;16.20
38114;BMP180;23926;53.222;6.354;2023-04-28T13:56:29;100856.00;;;16.20
38114;BMP180;23926;53.222;6.354;2023-04-28T13:58:55;100847.00;;;16.20
38114;BMP180;23926;53.222;6.354;2023-04-28T14:01:20;100851.00;;;16.10
38114;BMP180;23926;53.222;6.354;2023-04-28T14:03:46;100854.00;;;16.10
38114;BMP180;23926;53.222;6.354;2023-04-28T14:06:11;100850.00;;;16.10
38114;BMP180;23926;53.222;6.354;2023-04-28T14:08:37;100855.00;;;16.00
38114;BMP180;23926;53.222;6.354;2023-04-28T14:11:02;100855.00;;;15.70
38114;BMP180;23926;53.222;6.354;2023-04-28T14:13:28;100850.00;;;15.40
38114;BMP180;23926;53.222;6.354;2023-04-28T14:15:54;100847.00;;;15.20
38114;BMP180;23926;53.222;6.354;2023-04-28T14:18:19;100844.00;;;15.00